sensor_id;sensor_type;location;lat;lon;timestamp;pressure;altitude;pressure_sealevel;temperature;humidity
82262;BME280;71861;52.364;6.580;2023-08-06T03:01:37;100524.94;;;13.68;87.83
82262;BME280;71861;52.364;6.580;2023-08-06T03:04:03;100517.31;;;13.66;88.23
82262;BME280;71861;52.364;6.580;2023-08-06T03:06:28;100523.50;;;13.65;88.26
82262;BME280;71861;52.364;6.580;2023-08-06T03:08:54;100522.88;;;13.63;88.20
82262;BME280;71861;52.364;6.580;2023-08-06T03:11:19;100518.47;;;13.64;88.32
82262;BME280;71861;52.364;6.580;2023-08-06T03:13:44;100517.66;;;13.63;88.31
82262;BME280;71861;52.364;6.580;2023-08-06T03:16:10;100517.66;;;13.63;88.10
82262;BME280;71861;52.364;6.580;2023-08-06T03:18:35;100516.66;;;13.64;88.30
82262;BME280;71861;52.364;6.580;2023-08-06T03:21:00;100514.88;;;13.65;88.42
82262;BME280;71861;52.364;6.580;2023-08-06T03:23:26;100518.28;;;13.65;88.26
82262;BME280;71861;52.364;6.580;2023-08-06T03:25:51;100519.09;;;13.66;88.25
82262;BME280;71861;52.364;6.580;2023-08-06T03:28:17;100518.09;;;13.67;88.46
82262;BME280;71861;52.364;6.580;2023-08-06T03:30:42;100513.88;;;13.66;88.67
82262;BME280;71861;52.364;6.580;2023-08-06T03:33:07;100515.47;;;13.67;88.51
82262;BME280;71861;52.364;6.580;2023-08-06T03:35:33;100521.50;;;13.67;88.52
82262;BME280;71861;52.364;6.580;2023-08-06T03:37:58;100517.13;;;13.68;88.65
82262;BME280;71861;52.364;6.580;2023-08-06T03:40:24;100517.13;;;13.68;88.47
82262;BME280;71861;52.364;6.580;2023-08-06T03:42:49;100517.13;;;13.68;88.45
82262;BME280;71861;52.364;6.580;2023-08-06T03:45:14;100517.91;;;13.68;88.45
82262;BME280;71861;52.364;6.580;2023-08-06T03:47:40;100523.13;;;13.68;88.37
82262;BME280;71861;52.364;6.580;2023-08-06T03:50:06;100530.78;;;13.70;88.33
82262;BME280;71861;52.364;6.580;2023-08-06T03:52:31;100532.41;;;13.71;88.53
82262;BME280;71861;52.364;6.580;2023-08-06T03:54:56;100528.97;;;13.70;88.58
82262;BME280;71861;52.364;6.580;2023-08-06T03:57:22;100527.00;;;13.72;88.57
82262;BME280;71861;52.364;6.580;2023-08-06T03:59:47;100527.78;;;13.73;88.55
82262;BME280;71861;52.364;6.580;2023-08-06T04:02:12;100526.00;;;13.73;88.54
82262;BME280;71861;52.364;6.580;2023-08-06T04:04:38;100529.25;;;13.75;88.33
82262;BME280;71861;52.364;6.580;2023-08-06T04:07:03;100530.03;;;13.76;88.50
82262;BME280;71861;52.364;6.580;2023-08-06T04:09:29;100522.03;;;13.77;88.32
82262;BME280;71861;52.364;6.580;2023-08-06T04:11:54;100526.25;;;13.78;88.48
82262;BME280;71861;52.364;6.580;2023-08-06T04:14:21;100520.84;;;13.80;88.26
82262;BME280;71861;52.364;6.580;2023-08-06T04:16:46;100515.81;;;13.78;88.43
82262;BME280;71861;52.364;6.580;2023-08-06T04:19:12;100524.47;;;13.79;88.24
82262;BME280;71861;52.364;6.580;2023-08-06T04:21:37;100524.47;;;13.79;88.15
82262;BME280;71861;52.364;6.580;2023-08-06T04:24:03;100520.84;;;13.80;88.42
82262;BME280;71861;52.364;6.580;2023-08-06T04:26:28;100520.03;;;13.79;88.14
82262;BME280;71861;52.364;6.580;2023-08-06T04:28:53;100520.84;;;13.80;88.21
82262;BME280;71861;52.364;6.580;2023-08-06T04:31:19;100527.50;;;13.82;88.40
82262;BME280;71861;52.364;6.580;2023-08-06T04:33:44;100526.50;;;13.83;88.15
82262;BME280;71861;52.364;6.580;2023-08-06T04:36:09;100526.13;;;13.86;88.23
82262;BME280;71861;52.364;6.580;2023-08-06T04:38:35;100524.13;;;13.88;87.90
82262;BME280;71861;52.364;6.580;2023-08-06T04:41:02;100524.75;;;13.90;88.12
82262;BME280;71861;52.364;6.580;2023-08-06T04:43:28;100518.53;;;13.91;88.11
82262;BME280;71861;52.364;6.580;2023-08-06T04:45:54;100518.97;;;13.95;87.94
82262;BME280;71861;52.364;6.580;2023-08-06T04:48:20;100524.66;;;13.98;88.05
82262;BME280;71861;52.364;6.580;2023-08-06T04:50:47;100523.44;;;14.01;87.91
82262;BME280;71861;52.364;6.580;2023-08-06T04:53:12;100529.13;;;14.04;87.83
82262;BME280;71861;52.364;6.580;2023-08-06T04:55:38;100522.50;;;14.08;87.83
82262;BME280;71861;52.364;6.580;2023-08-06T04:58:03;100519.50;;;14.11;87.73
82262;BME280;71861;52.364;6.580;2023-08-06T05:00:29;100529.59;;;14.14;87.64
82262;BME280;71861;52.364;6.580;2023-08-06T05:02:54;100524.19;;;14.16;87.49
82262;BME280;71861;52.364;6.580;2023-08-06T05:05:20;100526.44;;;14.19;87.50
82262;BME280;71861;52.364;6.580;2023-08-06T05:07:48;100532.47;;;14.19;87.47
82262;BME280;71861;52.364;6.580;2023-08-06T05:10:14;100527.03;;;14.21;87.78
82262;BME280;71861;52.364;6.580;2023-08-06T05:12:39;100533.72;;;14.23;87.12
82262;BME280;71861;52.364;6.580;2023-08-06T05:15:05;100529.75;;;14.27;87.46
82262;BME280;71861;52.364;6.580;2023-08-06T05:17:30;100532.63;;;14.32;87.54
82262;BME280;71861;52.364;6.580;2023-08-06T05:19:55;100532.66;;;14.39;87.58
82262;BME280;71861;52.364;6.580;2023-08-06T05:22:21;100529.50;;;14.43;87.37
82262;BME280;71861;52.364;6.580;2023-08-06T05:24:46;100537.94;;;14.45;87.18
82262;BME280;71861;52.364;6.580;2023-08-06T05:27:11;100538.75;;;14.46;87.08
82262;BME280;71861;52.364;6.580;2023-08-06T05:29:37;100550.03;;;14.46;87.20
82262;BME280;71861;52.364;6.580;2023-08-06T05:32:02;100547.81;;;14.50;87.02
82262;BME280;71861;52.364;6.580;2023-08-06T05:34:27;100547.25;;;14.54;87.11
82262;BME280;71861;52.364;6.580;2023-08-06T05:36:53;100544.69;;;14.61;87.08
82262;BME280;71861;52.364;6.580;2023-08-06T05:39:18;100545.75;;;14.66;86.87
82262;BME280;71861;52.364;6.580;2023-08-06T05:41:44;100543.72;;;14.68;86.76
82262;BME280;71861;52.364;6.580;2023-08-06T05:44:09;100542.16;;;14.74;86.73
82262;BME280;71861;52.364;6.580;2023-08-06T05:46:34;100545.81;;;14.79;86.71
82262;BME280;71861;52.364;6.580;2023-08-06T05:49:00;100551.72;;;14.88;86.53
82262;BME280;71861;52.364;6.580;2023-08-06T05:51:26;100548.31;;;14.94;86.24
82262;BME280;71861;52.364;6.580;2023-08-06T05:53:52;100543.13;;;15.00;86.47
82262;BME280;71861;52.364;6.580;2023-08-06T05:56:17;100551.63;;;15.09;86.60
82262;BME280;71861;52.364;6.580;2023-08-06T05:58:43;100550.22;;;15.13;86.22
82262;BME280;71861;52.364;6.580;2023-08-06T06:01:08;100556.50;;;15.19;85.81
82262;BME280;71861;52.364;6.580;2023-08-06T06:03:33;100555.72;;;15.25;85.76
82262;BME280;71861;52.364;6.580;2023-08-06T06:06:01;100558.97;;;15.27;85.45
82262;BME280;71861;52.364;6.580;2023-08-06T06:08:26;100561.41;;;15.35;85.63
82262;BME280;71861;52.364;6.580;2023-08-06T06:10:51;100566.06;;;15.39;84.94
82262;BME280;71861;52.364;6.580;2023-08-06T06:13:17;100564.91;;;15.42;85.07
82262;BME280;71861;52.364;6.580;2023-08-06T06:15:42;100565.31;;;15.52;85.25
82262;BME280;71861;52.364;6.580;2023-08-06T06:18:07;100570.81;;;15.63;84.63
82262;BME280;71861;52.364;6.580;2023-08-06T06:20:33;100564.59;;;15.71;84.73
82262;BME280;71861;52.364;6.580;2023-08-06T06:22:58;100563.59;;;15.78;84.27
82262;BME280;71861;52.364;6.580;2023-08-06T06:25:24;100565.22;;;15.79;83.89
82262;BME280;71861;52.364;6.580;2023-08-06T06:27:49;100564.03;;;15.95;84.13
82262;BME280;71861;52.364;6.580;2023-08-06T06:30:14;100569.50;;;16.06;83.25
82262;BME280;71861;52.364;6.580;2023-08-06T06:32:40;100564.50;;;16.11;83.10
82262;BME280;71861;52.364;6.580;2023-08-06T06:35:06;100570.53;;;16.25;83.02
82262;BME280;71861;52.364;6.580;2023-08-06T06:37:31;100567.31;;;16.36;82.80
82262;BME280;71861;52.364;6.580;2023-08-06T06:39:57;100565.91;;;16.40;82.68
82262;BME280;71861;52.364;6.580;2023-08-06T06:42:22;100577.84;;;16.62;82.75
82262;BME280;71861;52.364;6.580;2023-08-06T06:44:48;100574.41;;;16.75;81.79
82262;BME280;71861;52.364;6.580;2023-08-06T06:47:13;100573.78;;;16.79;81.46
82262;BME280;71861;52.364;6.580;2023-08-06T06:49:39;100581.06;;;16.77;81.01
82262;BME280;71861;52.364;6.580;2023-08-06T06:52:05;100586.91;;;16.79;80.86
82262;BME280;71861;52.364;6.580;2023-08-06T06:54:30;100587.69;;;16.80;80.77
82262;BME280;71861;52.364;6.580;2023-08-06T06:56:56;100590.94;;;16.82;80.42
82262;BME280;71861;52.364;6.580;2023-08-06T06:59:21;100582.66;;;16.78;80.39
82262;BME280;71861;52.364;6.580;2023-08-06T07:01:46;100579.84;;;16.73;80.31
82262;BME280;71861;52.364;6.580;2023-08-06T07:04:11;100582.69;;;16.72;80.40
82262;BME280;71861;52.364;6.580;2023-08-06T07:06:37;100587.69;;;16.80;80.21
82262;BME280;71861;52.364;6.580;2023-08-06T07:09:02;100587.28;;;16.83;80.41
82262;BME280;71861;52.364;6.580;2023-08-06T07:11:28;100578.22;;;16.85;80.34
82262;BME280;71861;52.364;6.580;2023-08-06T07:13:57;100591.75;;;16.82;79.97
82262;BME280;71861;52.364;6.580;2023-08-06T07:16:26;100589.94;;;16.76;80.23
82262;BME280;71861;52.364;6.580;2023-08-06T07:18:53;100589.53;;;16.79;80.33
82262;BME280;71861;52.364;6.580;2023-08-06T07:21:19;100590.31;;;16.86;80.47
82262;BME280;71861;52.364;6.580;2023-08-06T07:23:45;100590.72;;;16.90;80.19
82262;BME280;71861;52.364;6.580;2023-08-06T07:26:11;100591.72;;;17.02;80.23
82262;BME280;71861;52.364;6.580;2023-08-06T07:28:36;100596.13;;;17.08;80.39
82262;BME280;71861;52.364;6.580;2023-08-06T07:31:02;100605.03;;;17.13;79.73
82262;BME280;71861;52.364;6.580;2023-08-06T07:33:28;100600.78;;;17.12;79.19
82262;BME280;71861;52.364;6.580;2023-08-06T07:35:53;100593.94;;;16.98;79.31
82262;BME280;71861;52.364;6.580;2023-08-06T07:38:18;100601.59;;;17.00;79.76
82262;BME280;71861;52.364;6.580;2023-08-06T07:40:44;100592.94;;;16.99;79.86
82262;BME280;71861;52.364;6.580;2023-08-06T07:43:10;100604.44;;;16.98;79.94
82262;BME280;71861;52.364;6.580;2023-08-06T07:45:35;100608.06;;;16.97;79.74
82262;BME280;71861;52.364;6.580;2023-08-06T07:48:01;100608.28;;;17.02;79.66
82262;BME280;71861;52.364;6.580;2023-08-06T07:50:27;100599.78;;;17.07;79.67
82262;BME280;71861;52.364;6.580;2023-08-06T07:52:52;100602.63;;;17.05;79.29
82262;BME280;71861;52.364;6.580;2023-08-06T07:55:17;100611.09;;;17.07;79.63
82262;BME280;71861;52.364;6.580;2023-08-06T07:57:43;100601.59;;;17.13;80.02
82262;BME280;71861;52.364;6.580;2023-08-06T08:00:08;100597.50;;;17.23;79.73
82262;BME280;71861;52.364;6.580;2023-08-06T08:02:34;100596.91;;;17.21;79.18
82262;BME280;71861;52.364;6.580;2023-08-06T08:05:00;100598.53;;;17.22;79.10
82262;BME280;71861;52.364;6.580;2023-08-06T08:07:25;100601.16;;;17.22;79.14
82262;BME280;71861;52.364;6.580;2023-08-06T08:09:53;100602.34;;;17.26;79.17
82262;BME280;71861;52.364;6.580;2023-08-06T08:12:18;100601.72;;;17.31;79.00
82262;BME280;71861;52.364;6.580;2023-08-06T08:14:44;100603.72;;;17.35;78.84
82262;BME280;71861;52.364;6.580;2023-08-06T08:17:10;100599.09;;;17.37;79.01
82262;BME280;71861;52.364;6.580;2023-08-06T08:19:36;100603.72;;;17.35;78.75
82262;BME280;71861;52.364;6.580;2023-08-06T08:22:02;100605.53;;;17.41;78.44
82262;BME280;71861;52.364;6.580;2023-08-06T08:24:28;100616.06;;;17.48;78.55
82262;BME280;71861;52.364;6.580;2023-08-06T08:26:55;100603.13;;;17.46;78.63
82262;BME280;71861;52.364;6.580;2023-08-06T08:29:21;100607.75;;;17.51;78.54
82262;BME280;71861;52.364;6.580;2023-08-06T08:31:46;100609.59;;;17.50;77.63
82262;BME280;71861;52.364;6.580;2023-08-06T08:34:14;100604.94;;;17.46;77.51
82262;BME280;71861;52.364;6.580;2023-08-06T08:36:40;100608.78;;;17.37;77.92
82262;BME280;71861;52.364;6.580;2023-08-06T08:39:05;100614.44;;;17.34;78.33
82262;BME280;71861;52.364;6.580;2023-08-06T08:41:31;100601.16;;;17.29;77.99
82262;BME280;71861;52.364;6.580;2023-08-06T08:43:59;100606.81;;;17.26;78.04
82262;BME280;71861;52.364;6.580;2023-08-06T08:46:32;100607.19;;;17.29;78.43
82262;BME280;71861;52.364;6.580;2023-08-06T08:48:59;100603.72;;;17.35;78.22
82262;BME280;71861;52.364;6.580;2023-08-06T08:51:26;100607.16;;;17.42;78.20
82262;BME280;71861;52.364;6.580;2023-08-06T08:53:53;100612.00;;;17.52;77.15
82262;BME280;71861;52.364;6.580;2023-08-06T08:56:21;100607.50;;;17.65;77.53
82262;BME280;71861;52.364;6.580;2023-08-06T08:58:47;100607.41;;;17.85;77.48
82262;BME280;71861;52.364;6.580;2023-08-06T09:01:14;100601.22;;;18.04;76.94
82262;BME280;71861;52.364;6.580;2023-08-06T09:03:40;100600.91;;;18.18;75.32
82262;BME280;71861;52.364;6.580;2023-08-06T09:06:06;100602.66;;;18.31;75.19
82262;BME280;71861;52.364;6.580;2023-08-06T09:08:36;100606.97;;;18.57;75.84
82262;BME280;71861;52.364;6.580;2023-08-06T09:11:04;100602.69;;;18.80;73.57
82262;BME280;71861;52.364;6.580;2023-08-06T09:13:30;100606.94;;;18.81;73.57
82262;BME280;71861;52.364;6.580;2023-08-06T09:15:55;100609.44;;;18.94;74.62
82262;BME280;71861;52.364;6.580;2023-08-06T09:18:27;100603.84;;;19.09;72.40
82262;BME280;71861;52.364;6.580;2023-08-06T09:20:54;100609.59;;;19.17;73.00
82262;BME280;71861;52.364;6.580;2023-08-06T09:23:19;100612.34;;;19.47;73.48
82262;BME280;71861;52.364;6.580;2023-08-06T09:25:45;100612.09;;;19.66;72.60
82262;BME280;71861;52.364;6.580;2023-08-06T09:28:11;100609.78;;;19.88;71.58
82262;BME280;71861;52.364;6.580;2023-08-06T09:30:37;100618.22;;;19.97;70.15
82262;BME280;71861;52.364;6.580;2023-08-06T09:33:03;100613.78;;;20.38;71.95
82262;BME280;71861;52.364;6.580;2023-08-06T09:35:30;100613.94;;;20.89;70.33
82262;BME280;71861;52.364;6.580;2023-08-06T09:38:05;100615.91;;;21.05;68.71
82262;BME280;71861;52.364;6.580;2023-08-06T09:40:32;100624.50;;;21.24;69.16
82262;BME280;71861;52.364;6.580;2023-08-06T09:42:58;100622.09;;;21.22;66.43
82262;BME280;71861;52.364;6.580;2023-08-06T09:45:30;100630.25;;;21.21;66.89
82262;BME280;71861;52.364;6.580;2023-08-06T09:47:55;100625.88;;;21.15;66.85
82262;BME280;71861;52.364;6.580;2023-08-06T09:50:21;100627.16;;;21.12;66.40
82262;BME280;71861;52.364;6.580;2023-08-06T09:52:47;100621.41;;;20.92;65.40
82262;BME280;71861;52.364;6.580;2023-08-06T09:55:14;100621.66;;;21.02;65.59
82262;BME280;71861;52.364;6.580;2023-08-06T09:57:41;100630.03;;;20.99;65.47
82262;BME280;71861;52.364;6.580;2023-08-06T10:00:08;100635.56;;;21.09;66.82
82262;BME280;71861;52.364;6.580;2023-08-06T10:02:35;100625.72;;;21.44;64.08
82262;BME280;71861;52.364;6.580;2023-08-06T10:05:01;100634.53;;;21.62;64.28
82262;BME280;71861;52.364;6.580;2023-08-06T10:07:26;100633.38;;;21.69;63.19
82262;BME280;71861;52.364;6.580;2023-08-06T10:09:54;100633.25;;;21.76;61.61
82262;BME280;71861;52.364;6.580;2023-08-06T10:12:20;100634.06;;;21.65;62.44
82262;BME280;71861;52.364;6.580;2023-08-06T10:14:47;100635.47;;;21.56;64.18
82262;BME280;71861;52.364;6.580;2023-08-06T10:17:14;100635.81;;;21.59;62.18
82262;BME280;71861;52.364;6.580;2023-08-06T10:19:39;100625.84;;;21.38;62.21
82262;BME280;71861;52.364;6.580;2023-08-06T10:22:14;100631.84;;;21.33;63.18
82262;BME280;71861;52.364;6.580;2023-08-06T10:27:23;100628.09;;;21.06;63.67
82262;BME280;71861;52.364;6.580;2023-08-06T10:29:48;100634.47;;;20.87;62.97
82262;BME280;71861;52.364;6.580;2023-08-06T10:32:17;100623.22;;;20.69;64.29
82262;BME280;71861;52.364;6.580;2023-08-06T10:34:59;100634.94;;;20.61;64.46
82262;BME280;71861;52.364;6.580;2023-08-06T10:37:35;100629.50;;;20.45;65.36
82262;BME280;71861;52.364;6.580;2023-08-06T10:40:01;100633.75;;;20.34;66.28
82262;BME280;71861;52.364;6.580;2023-08-06T10:42:29;100630.91;;;20.18;66.04
82262;BME280;71861;52.364;6.580;2023-08-06T10:45:18;100622.63;;;19.84;66.94
82262;BME280;71861;52.364;6.580;2023-08-06T10:47:45;100630.94;;;19.70;67.87
82262;BME280;71861;52.364;6.580;2023-08-06T10:50:13;100627.00;;;19.61;68.68
82262;BME280;71861;52.364;6.580;2023-08-06T10:52:39;100631.44;;;19.60;68.74
82262;BME280;71861;52.364;6.580;2023-08-06T10:55:05;100631.38;;;19.67;69.28
82262;BME280;71861;52.364;6.580;2023-08-06T10:57:30;100629.47;;;19.74;69.01
82262;BME280;71861;52.364;6.580;2023-08-06T10:59:56;100621.56;;;19.74;67.14
82262;BME280;71861;52.364;6.580;2023-08-06T11:02:21;100622.97;;;19.58;67.36
82262;BME280;71861;52.364;6.580;2023-08-06T11:04:48;100622.44;;;19.50;68.29
82262;BME280;71861;52.364;6.580;2023-08-06T11:07:13;100625.97;;;19.44;68.23
82262;BME280;71861;52.364;6.580;2023-08-06T11:09:39;100623.13;;;19.45;69.23
82262;BME280;71861;52.364;6.580;2023-08-06T11:12:10;100629.91;;;19.53;68.96
82262;BME280;71861;52.364;6.580;2023-08-06T11:14:36;100625.84;;;19.57;69.06
82262;BME280;71861;52.364;6.580;2023-08-06T11:17:01;100623.38;;;19.73;69.37
82262;BME280;71861;52.364;6.580;2023-08-06T11:19:27;100627.03;;;19.91;67.65
82262;BME280;71861;52.364;6.580;2023-08-06T11:21:52;100625.75;;;19.93;66.72
82262;BME280;71861;52.364;6.580;2023-08-06T11:24:17;100621.53;;;20.04;67.43
82262;BME280;71861;52.364;6.580;2023-08-06T11:26:43;100612.81;;;20.21;66.72
82262;BME280;71861;52.364;6.580;2023-08-06T11:29:10;100615.00;;;20.24;66.44
82262;BME280;71861;52.364;6.580;2023-08-06T11:31:36;100611.59;;;20.35;66.14
82262;BME280;71861;52.364;6.580;2023-08-06T11:34:03;100617.69;;;20.47;64.70
82262;BME280;71861;52.364;6.580;2023-08-06T11:36:32;100616.41;;;20.50;65.86
82262;BME280;71861;52.364;6.580;2023-08-06T11:38:59;100624.00;;;20.46;66.10
82262;BME280;71861;52.364;6.580;2023-08-06T11:41:24;100627.34;;;20.53;66.48
82262;BME280;71861;52.364;6.580;2023-08-06T11:43:50;100619.53;;;20.58;66.73
82262;BME280;71861;52.364;6.580;2023-08-06T11:46:16;100616.66;;;20.71;66.17
82262;BME280;71861;52.364;6.580;2023-08-06T11:48:54;100607.84;;;20.77;66.40
82262;BME280;71861;52.364;6.580;2023-08-06T11:51:24;100616.22;;;20.86;66.42
82262;BME280;71861;52.364;6.580;2023-08-06T11:53:53;100619.56;;;20.81;66.37
82262;BME280;71861;52.364;6.580;2023-08-06T11:56:19;100616.56;;;20.89;65.11
82262;BME280;71861;52.364;6.580;2023-08-06T11:58:44;100616.50;;;20.96;65.32
82262;BME280;71861;52.364;6.580;2023-08-06T12:01:10;100614.84;;;20.95;64.04
82262;BME280;71861;52.364;6.580;2023-08-06T12:03:41;100620.22;;;20.88;64.28
82262;BME280;71861;52.364;6.580;2023-08-06T12:06:06;100610.13;;;20.85;64.98
82262;BME280;71861;52.364;6.580;2023-08-06T12:08:35;100607.94;;;20.82;64.49
82262;BME280;71861;52.364;6.580;2023-08-06T12:11:00;100613.00;;;20.84;64.72
82262;BME280;71861;52.364;6.580;2023-08-06T12:13:26;100614.50;;;20.91;64.41
82262;BME280;71861;52.364;6.580;2023-08-06T12:15:51;100616.69;;;20.83;63.70
82262;BME280;71861;52.364;6.580;2023-08-06T12:18:19;100618.66;;;20.76;63.81
82262;BME280;71861;52.364;6.580;2023-08-06T12:20:44;100617.03;;;20.75;64.52
82262;BME280;71861;52.364;6.580;2023-08-06T12:23:09;100609.47;;;20.78;65.41
82262;BME280;71861;52.364;6.580;2023-08-06T12:25:35;100615.41;;;20.85;64.12
82262;BME280;71861;52.364;6.580;2023-08-06T12:28:00;100618.50;;;20.82;64.88
82262;BME280;71861;52.364;6.580;2023-08-06T12:30:26;100617.03;;;20.86;64.27
82262;BME280;71861;52.364;6.580;2023-08-06T12:32:51;100614.50;;;20.91;63.57
82262;BME280;71861;52.364;6.580;2023-08-06T12:35:17;100615.31;;;20.92;64.14
82262;BME280;71861;52.364;6.580;2023-08-06T12:37:42;100614.06;;;21.06;64.06
82262;BME280;71861;52.364;6.580;2023-08-06T12:40:09;100611.63;;;21.39;64.66
82262;BME280;71861;52.364;6.580;2023-08-06T12:42:34;100612.34;;;21.63;63.35
82262;BME280;71861;52.364;6.580;2023-08-06T12:45:00;100616.34;;;21.77;62.86
82262;BME280;71861;52.364;6.580;2023-08-06T12:47:25;100613.19;;;21.91;61.50
82262;BME280;71861;52.364;6.580;2023-08-06T12:49:50;100614.34;;;22.12;61.69
82262;BME280;71861;52.364;6.580;2023-08-06T12:52:16;100609.16;;;22.17;58.63
82262;BME280;71861;52.364;6.580;2023-08-06T12:54:42;100599.78;;;22.26;59.99
82262;BME280;71861;52.364;6.580;2023-08-06T12:57:07;100608.66;;;22.36;59.69
82262;BME280;71861;52.364;6.580;2023-08-06T12:59:33;100615.47;;;22.60;60.37
82262;BME280;71861;52.364;6.580;2023-08-06T13:01:59;100604.47;;;22.68;57.78
82262;BME280;71861;52.364;6.580;2023-08-06T13:04:25;100613.00;;;22.92;59.56
82262;BME280;71861;52.364;6.580;2023-08-06T13:06:50;100613.78;;;23.09;58.99
82262;BME280;71861;52.364;6.580;2023-08-06T13:09:16;100620.50;;;23.33;59.20
82262;BME280;71861;52.364;6.580;2023-08-06T13:11:42;100611.31;;;23.41;54.31
82262;BME280;71861;52.364;6.580;2023-08-06T13:14:11;100608.03;;;23.34;57.15
82262;BME280;71861;52.364;6.580;2023-08-06T13:16:38;100609.66;;;23.56;58.28
82262;BME280;71861;52.364;6.580;2023-08-06T13:19:03;100617.88;;;23.55;53.42
82262;BME280;71861;52.364;6.580;2023-08-06T13:24:07;100620.78;;;23.58;56.93
82262;BME280;71861;52.364;6.580;2023-08-06T13:26:33;100620.31;;;23.61;56.18
82262;BME280;71861;52.364;6.580;2023-08-06T13:28:59;100614.69;;;23.79;55.54
82262;BME280;71861;52.364;6.580;2023-08-06T13:31:25;100625.59;;;24.04;57.14
82262;BME280;71861;52.364;6.580;2023-08-06T13:33:51;100615.16;;;24.24;56.26
82262;BME280;71861;52.364;6.580;2023-08-06T13:36:19;100612.91;;;24.38;55.65
82262;BME280;71861;52.364;6.580;2023-08-06T13:38:44;100613.84;;;24.27;52.92
82262;BME280;71861;52.364;6.580;2023-08-06T13:41:10;100620.19;;;24.21;55.22
82262;BME280;71861;52.364;6.580;2023-08-06T13:43:35;100617.03;;;23.97;54.94
82262;BME280;71861;52.364;6.580;2023-08-06T13:46:00;100618.19;;;23.85;57.13
82262;BME280;71861;52.364;6.580;2023-08-06T13:48:26;100610.25;;;23.63;56.04
82262;BME280;71861;52.364;6.580;2023-08-06T13:50:51;100619.41;;;23.13;55.51
82262;BME280;71861;52.364;6.580;2023-08-06T13:53:16;100623.78;;;22.69;57.22
82262;BME280;71861;52.364;6.580;2023-08-06T13:55:42;100624.06;;;22.23;55.58
82262;BME280;71861;52.364;6.580;2023-08-06T13:58:07;100630.81;;;21.86;58.50
82262;BME280;71861;52.364;6.580;2023-08-06T14:00:35;100632.53;;;21.69;60.44
82262;BME280;71861;52.364;6.580;2023-08-06T14:03:01;100644.66;;;21.53;61.76
82262;BME280;71861;52.364;6.580;2023-08-06T14:05:26;100654.03;;;21.32;62.23
82262;BME280;71861;52.364;6.580;2023-08-06T14:07:52;100663.16;;;20.61;59.97
82262;BME280;71861;52.364;6.580;2023-08-06T14:10:17;100675.16;;;19.86;60.36
82262;BME280;71861;52.364;6.580;2023-08-06T14:12:42;100694.03;;;19.29;61.68
82262;BME280;71861;52.364;6.580;2023-08-06T14:15:08;100711.25;;;18.45;67.68
82262;BME280;71861;52.364;6.580;2023-08-06T14:17:33;100697.03;;;17.70;71.08
82262;BME280;71861;52.364;6.580;2023-08-06T14:19:59;100707.81;;;17.17;72.15
82262;BME280;71861;52.364;6.580;2023-08-06T14:22:25;100709.81;;;16.76;75.05
82262;BME280;71861;52.364;6.580;2023-08-06T14:24:51;100698.03;;;16.39;77.85
82262;BME280;71861;52.364;6.580;2023-08-06T14:27:16;100712.09;;;16.18;78.65
82262;BME280;71861;52.364;6.580;2023-08-06T14:29:41;100723.72;;;16.03;79.84
82262;BME280;71861;52.364;6.580;2023-08-06T14:32:07;100726.31;;;15.96;80.04
82262;BME280;71861;52.364;6.580;2023-08-06T14:34:32;100722.50;;;15.99;80.89
82262;BME280;71861;52.364;6.580;2023-08-06T14:36:58;100740.66;;;16.00;81.08
82262;BME280;71861;52.364;6.580;2023-08-06T14:39:24;100741.09;;;16.04;81.96
82262;BME280;71861;52.364;6.580;2023-08-06T14:41:49;100747.94;;;16.05;82.23
82262;BME280;71861;52.364;6.580;2023-08-06T14:44:15;100751.59;;;16.10;82.33
82262;BME280;71861;52.364;6.580;2023-08-06T14:46:40;100759.25;;;16.12;82.25
82262;BME280;71861;52.364;6.580;2023-08-06T14:49:05;100767.75;;;16.14;82.07
82262;BME280;71861;52.364;6.580;2023-08-06T14:51:31;100766.13;;;16.13;82.05
82262;BME280;71861;52.364;6.580;2023-08-06T14:53:56;100779.25;;;16.13;82.94
82262;BME280;71861;52.364;6.580;2023-08-06T14:56:21;100789.72;;;16.13;82.94
82262;BME280;71861;52.364;6.580;2023-08-06T14:58:47;100796.56;;;16.14;83.13
82262;BME280;71861;52.364;6.580;2023-08-06T15:01:13;100797.19;;;16.16;83.34
82262;BME280;71861;52.364;6.580;2023-08-06T15:03:38;100807.28;;;16.19;83.46
82262;BME280;71861;52.364;6.580;2023-08-06T15:06:03;100807.09;;;16.20;83.24
82262;BME280;71861;52.364;6.580;2023-08-06T15:08:29;100799.66;;;16.24;84.18
82262;BME280;71861;52.364;6.580;2023-08-06T15:10:54;100810.16;;;16.24;83.60
82262;BME280;71861;52.364;6.580;2023-08-06T15:13:20;100810.34;;;16.29;83.95
82262;BME280;71861;52.364;6.580;2023-08-06T15:15:49;100817.03;;;16.31;84.19
82262;BME280;71861;52.364;6.580;2023-08-06T15:18:14;100815.00;;;16.33;84.39
82262;BME280;71861;52.364;6.580;2023-08-06T15:20:40;100820.44;;;16.32;84.15
82262;BME280;71861;52.364;6.580;2023-08-06T15:23:05;100821.06;;;16.34;84.05
82262;BME280;71861;52.364;6.580;2023-08-06T15:25:31;100823.50;;;16.35;84.00
82262;BME280;71861;52.364;6.580;2023-08-06T15:27:56;100819.25;;;16.34;84.11
82262;BME280;71861;52.364;6.580;2023-08-06T15:30:21;100826.72;;;16.31;84.16
82262;BME280;71861;52.364;6.580;2023-08-06T15:32:47;100833.34;;;16.27;84.12
82262;BME280;71861;52.364;6.580;2023-08-06T15:35:13;100834.50;;;16.18;83.86
82262;BME280;71861;52.364;6.580;2023-08-06T15:37:39;100828.22;;;16.12;83.89
82262;BME280;71861;52.364;6.580;2023-08-06T15:40:05;100832.66;;;16.12;84.18
82262;BME280;71861;52.364;6.580;2023-08-06T15:42:31;100831.03;;;16.11;83.97
82262;BME280;71861;52.364;6.580;2023-08-06T15:44:56;100832.66;;;16.12;84.24
82262;BME280;71861;52.364;6.580;2023-08-06T15:47:22;100836.28;;;16.11;84.39
82262;BME280;71861;52.364;6.580;2023-08-06T15:49:47;100835.28;;;16.12;84.14